Time;durP1;ratioP1;P1;durP2;ratioP2;P2;SDS_P1;SDS_P2;PMS_P1;PMS_P2;Temp;Humidity;BMP_temperature;BMP_pressure;BME280_temperature;BME280_humidity;BME280_pressure;Samples;Min_cycle;Max_cycle;Signal;HPM_P1;HPM_P2
2021/05/01 00:01:21;;;;;;;25.77;20.77;;;9.80;94.40;;;;;;4989481;28;20210;-81
2021/05/01 00:03:48;;;;;;;28.92;22.52;;;9.70;94.40;;;;;;4983454;28;20723;-80
2021/05/01 00:06:14;;;;;;;29.38;22.35;;;9.70;94.50;;;;;;4987408;28;20236;-79
2021/05/01 00:08:41;;;;;;;26.15;22.13;;;9.70;94.50;;;;;;4982068;28;20220;-81
2021/05/01 00:11:07;;;;;;;26.95;23.58;;;9.70;94.50;;;;;;4981180;28;20211;-80
2021/05/01 00:13:35;;;;;;;31.85;25.08;;;9.70;94.70;;;;;;4982002;28;20225;-80
2021/05/01 00:16:03;;;;;;;34.63;25.98;;;9.70;94.70;;;;;;4986113;28;20283;-80
2021/05/01 00:18:31;;;;;;;31.88;25.40;;;9.70;94.80;;;;;;4976703;28;20204;-80
2021/05/01 00:20:57;;;;;;;31.73;24.27;;;9.70;95.00;;;;;;4983127;28;20609;-80
2021/05/01 00:23:23;;;;;;;29.98;25.67;;;9.60;94.90;;;;;;4983959;28;20203;-80
2021/05/01 00:25:50;;;;;;;30.15;24.80;;;9.60;94.90;;;;;;4981700;28;20229;-80
2021/05/01 00:28:16;;;;;;;32.95;23.88;;;9.60;95.00;;;;;;4986242;28;20241;-80
2021/05/01 00:30:42;;;;;;;28.80;23.27;;;9.60;95.10;;;;;;4976855;28;20216;-80
2021/05/01 00:33:09;;;;;;;31.70;25.85;;;9.60;95.00;;;;;;4989293;28;20220;-79
2021/05/01 00:35:36;;;;;;;30.40;25.88;;;9.60;95.10;;;;;;4986781;28;20265;-80
2021/05/01 00:38:03;;;;;;;35.38;25.75;;;9.60;95.20;;;;;;4981368;28;20201;-80
2021/05/01 00:40:30;;;;;;;32.90;24.98;;;9.60;95.30;;;;;;4983213;28;20215;-79
2021/05/01 00:42:57;;;;;;;31.60;26.55;;;9.60;95.50;;;;;;4985874;28;20280;-80
2021/05/01 00:45:24;;;;;;;35.08;27.50;;;9.70;95.70;;;;;;4982759;28;20247;-80
2021/05/01 00:47:50;;;;;;;34.85;27.27;;;9.60;95.70;;;;;;4977982;28;20208;-79
2021/05/01 00:50:17;;;;;;;31.55;26.55;;;9.70;95.70;;;;;;4982982;28;20273;-79
2021/05/01 00:52:45;;;;;;;35.97;28.98;;;9.60;95.80;;;;;;4981987;28;20209;-80
2021/05/01 00:55:12;;;;;;;38.58;31.00;;;9.60;95.90;;;;;;4983168;28;20702;-80
2021/05/01 00:57:39;;;;;;;34.60;27.20;;;9.60;96.00;;;;;;4982813;28;20206;-81
2021/05/01 01:00:11;;;;;;;35.55;30.10;;;9.60;95.90;;;;;;4982429;28;20222;-81
2021/05/01 01:02:38;;;;;;;33.38;26.77;;;9.60;95.90;;;;;;4985221;28;20235;-81
2021/05/01 01:05:05;;;;;;;37.42;29.35;;;9.60;95.90;;;;;;4980184;28;20702;-79
2021/05/01 01:07:31;;;;;;;38.45;26.92;;;9.60;96.00;;;;;;4978597;28;20205;-79
2021/05/01 01:09:59;;;;;;;37.50;29.10;;;9.60;96.00;;;;;;4982684;28;20247;-80
2021/05/01 01:12:25;;;;;;;35.97;28.05;;;9.50;95.90;;;;;;4979381;28;20720;-79
2021/05/01 01:14:51;;;;;;;35.08;28.38;;;9.50;95.80;;;;;;4982007;28;20255;-79
2021/05/01 01:17:18;;;;;;;38.50;28.75;;;9.50;95.80;;;;;;4981648;28;20205;-79
2021/05/01 01:19:44;;;;;;;37.30;28.23;;;9.40;96.10;;;;;;4985479;28;20271;-80
2021/05/01 01:22:15;;;;;;;38.20;30.27;;;9.40;95.70;;;;;;4976651;28;20208;-80
2021/05/01 01:24:42;;;;;;;38.33;28.17;;;9.40;95.70;;;;;;4983156;28;20252;-79
2021/05/01 01:27:09;;;;;;;36.85;28.60;;;9.30;95.70;;;;;;4981623;28;20657;-80
2021/05/01 01:29:37;;;;;;;39.67;30.60;;;9.30;95.70;;;;;;4981653;28;20208;-79
2021/05/01 01:32:04;;;;;;;33.63;27.25;;;9.30;95.70;;;;;;4989217;28;20196;-80
2021/05/01 01:34:31;;;;;;;39.78;29.40;;;9.20;95.70;;;;;;4977832;28;20209;-81
2021/05/01 01:36:57;;;;;;;38.08;28.60;;;9.20;95.70;;;;;;4978327;28;20210;-80
2021/05/01 01:39:25;;;;;;;40.05;28.25;;;9.10;95.70;;;;;;4984119;28;20479;-80
2021/05/01 01:41:51;;;;;;;44.05;31.60;;;9.20;95.70;;;;;;4984422;28;20282;-79
2021/05/01 01:44:18;;;;;;;35.63;28.98;;;9.20;95.80;;;;;;4985688;28;20214;-81
2021/05/01 01:46:44;;;;;;;41.88;31.52;;;9.10;95.80;;;;;;4978813;28;20242;-81
2021/05/01 01:49:11;;;;;;;40.63;31.17;;;9.10;95.80;;;;;;4978187;28;20201;-80
2021/05/01 01:51:37;;;;;;;38.25;28.90;;;9.00;95.80;;;;;;4984797;28;20200;-80
2021/05/01 01:54:05;;;;;;;37.28;30.13;;;9.00;95.80;;;;;;4983563;28;20204;-80
2021/05/01 01:56:36;;;;;;;37.03;28.08;;;9.00;95.70;;;;;;4983561;28;20199;-80
2021/05/01 01:59:03;;;;;;;33.47;27.90;;;9.00;95.60;;;;;;4979520;28;20206;-81
2021/05/01 02:01:29;;;;;;;38.92;28.90;;;9.00;95.50;;;;;;4980553;28;20205;-81
2021/05/01 02:03:56;;;;;;;43.13;29.45;;;9.00;95.50;;;;;;4976578;28;20208;-80
2021/05/01 02:06:22;;;;;;;41.67;29.90;;;8.90;95.50;;;;;;4983928;28;20244;-80
2021/05/01 02:08:48;;;;;;;36.45;27.45;;;8.90;95.60;;;;;;4981853;28;20799;-80
2021/05/01 02:11:15;;;;;;;36.05;28.15;;;8.90;95.60;;;;;;4980458;28;20664;-81
2021/05/01 02:13:42;;;;;;;34.00;28.20;;;8.90;95.50;;;;;;4979185;28;20214;-81
2021/05/01 02:16:09;;;;;;;41.72;29.20;;;8.90;95.40;;;;;;4982536;28;20195;-80
2021/05/01 02:18:35;;;;;;;43.55;30.73;;;8.90;95.40;;;;;;4985002;28;20207;-80
2021/05/01 02:21:01;;;;;;;41.05;31.33;;;8.90;95.40;;;;;;4988510;28;20265;-80
2021/05/01 02:23:28;;;;;;;39.22;29.42;;;8.90;95.50;;;;;;4985255;28;20203;-81
2021/05/01 02:25:54;;;;;;;37.25;27.10;;;8.80;95.50;;;;;;4982179;28;20317;-81
2021/05/01 02:28:21;;;;;;;33.47;27.17;;;8.80;95.50;;;;;;4979738;28;20229;-80
2021/05/01 02:30:48;;;;;;;34.83;27.27;;;8.80;95.50;;;;;;4980971;28;20205;-81
2021/05/01 02:33:14;;;;;;;34.45;26.73;;;8.70;95.40;;;;;;4980510;28;20202;-81
2021/05/01 02:35:42;;;;;;;37.00;27.55;;;8.60;95.20;;;;;;4981623;28;20318;-80
2021/05/01 02:38:09;;;;;;;37.15;25.90;;;8.50;95.10;;;;;;4979378;28;20239;-81
2021/05/01 02:40:36;;;;;;;34.67;27.02;;;8.50;95.00;;;;;;4977216;28;20199;-81
2021/05/01 02:43:03;;;;;;;30.30;24.80;;;8.40;94.90;;;;;;4980854;28;20206;-81
2021/05/01 02:45:29;;;;;;;26.85;22.92;;;8.30;94.80;;;;;;4982671;28;20219;-81
2021/05/01 02:47:57;;;;;;;25.75;21.38;;;8.30;94.70;;;;;;4976806;28;20202;-80
2021/05/01 02:50:23;;;;;;;28.73;23.55;;;8.30;94.60;;;;;;4980248;28;20741;-81
2021/05/01 02:52:50;;;;;;;30.50;25.67;;;8.20;94.50;;;;;;4979717;28;20203;-81
2021/05/01 02:55:16;;;;;;;34.70;26.48;;;8.20;94.60;;;;;;4982826;28;20299;-81
2021/05/01 02:57:43;;;;;;;34.65;25.65;;;8.20;94.60;;;;;;4975866;28;20677;-79
2021/05/01 03:00:11;;;;;;;42.50;28.08;;;8.20;94.70;;;;;;4977371;28;20196;-80
2021/05/01 03:02:38;;;;;;;32.83;26.13;;;8.20;94.80;;;;;;4985673;28;20593;-81
2021/05/01 03:05:07;;;;;;;30.50;25.77;;;8.10;94.80;;;;;;4987190;28;20715;-81
2021/05/01 03:07:33;;;;;;;35.35;26.98;;;8.10;94.90;;;;;;4983591;28;20203;-81
2021/05/01 03:10:00;;;;;;;29.83;24.20;;;8.00;94.70;;;;;;4983212;28;20234;-81
2021/05/01 03:12:26;;;;;;;28.15;22.77;;;8.00;94.60;;;;;;4975415;28;20196;-79
2021/05/01 03:14:53;;;;;;;28.98;22.45;;;7.90;94.40;;;;;;4983403;28;20394;-79
2021/05/01 03:17:19;;;;;;;27.73;22.10;;;7.90;94.30;;;;;;4982615;28;20231;-82
2021/05/01 03:19:45;;;;;;;32.05;25.40;;;7.80;94.10;;;;;;4978815;28;20235;-81
2021/05/01 03:22:13;;;;;;;30.25;22.58;;;7.80;94.10;;;;;;4982581;28;20278;-81
2021/05/01 03:24:40;;;;;;;29.35;22.75;;;7.70;94.00;;;;;;4977469;28;20257;-79
2021/05/01 03:27:06;;;;;;;34.08;25.85;;;7.60;94.00;;;;;;4978403;28;20235;-80
2021/05/01 03:29:34;;;;;;;32.35;25.17;;;7.60;94.00;;;;;;4987384;28;20203;-81
2021/05/01 03:32:00;;;;;;;28.10;21.27;;;7.50;94.00;;;;;;4982097;28;20199;-81
2021/05/01 03:34:27;;;;;;;25.45;19.92;;;7.40;93.90;;;;;;4978475;28;20234;-80
2021/05/01 03:36:53;;;;;;;22.45;19.55;;;7.40;93.90;;;;;;4980421;28;20206;-81
2021/05/01 03:39:20;;;;;;;28.38;21.25;;;7.30;93.80;;;;;;4980583;28;20207;-81
2021/05/01 03:41:47;;;;;;;25.00;20.25;;;7.20;93.70;;;;;;4982606;28;20215;-80
2021/05/01 03:44:13;;;;;;;28.67;22.10;;;7.20;93.70;;;;;;4981745;28;20203;-80
2021/05/01 03:46:40;;;;;;;33.83;25.13;;;7.10;93.60;;;;;;4982959;28;20227;-80
2021/05/01 03:49:07;;;;;;;30.77;23.95;;;7.10;93.60;;;;;;4983066;28;20199;-81
2021/05/01 03:51:33;;;;;;;34.03;25.05;;;7.10;93.70;;;;;;4984957;28;20206;-81
2021/05/01 03:54:00;;;;;;;35.00;25.88;;;7.10;93.80;;;;;;4984663;28;20238;-80
2021/05/01 03:56:27;;;;;;;33.05;25.23;;;7.00;93.90;;;;;;4985882;28;20212;-81
2021/05/01 03:58:54;;;;;;;35.65;24.88;;;7.00;93.90;;;;;;4989461;28;20207;-80
2021/05/01 04:01:20;;;;;;;32.45;25.77;;;7.00;93.90;;;;;;4987269;28;20208;-80
2021/05/01 04:03:46;;;;;;;28.65;23.50;;;7.00;93.90;;;;;;4984746;28;20233;-81
2021/05/01 04:06:13;;;;;;;31.15;24.88;;;7.00;93.90;;;;;;4987107;28;20231;-80
2021/05/01 04:08:39;;;;;;;31.23;24.27;;;6.90;93.90;;;;;;4982878;28;20226;-80
2021/05/01 04:11:06;;;;;;;29.35;22.65;;;6.90;93.90;;;;;;4983741;28;20213;-80
2021/05/01 04:13:33;;;;;;;32.72;23.85;;;6.90;93.90;;;;;;4981630;28;20245;-80
2021/05/01 04:16:00;;;;;;;31.50;25.55;;;6.90;93.90;;;;;;4984789;28;20196;-82
2021/05/01 04:18:26;;;;;;;33.70;25.15;;;6.90;93.90;;;;;;4988727;28;20207;-80
2021/05/01 04:20:52;;;;;;;29.00;23.88;;;6.90;94.00;;;;;;4988094;28;20231;-81
2021/05/01 04:23:19;;;;;;;28.00;23.75;;;6.90;94.00;;;;;;4981338;28;20250;-81
2021/05/01 04:25:45;;;;;;;28.90;22.83;;;6.90;94.00;;;;;;4982340;28;20226;-80
2021/05/01 04:28:11;;;;;;;36.25;24.65;;;6.80;94.00;;;;;;4984831;28;20204;-81
2021/05/01 04:30:39;;;;;;;42.53;27.10;;;6.80;94.10;;;;;;4982827;28;20290;-80
2021/05/01 04:33:05;;;;;;;38.45;27.48;;;6.80;94.20;;;;;;4985569;28;20237;-80
2021/05/01 04:35:32;;;;;;;40.70;25.20;;;6.80;94.20;;;;;;4982787;28;20199;-80
2021/05/01 04:37:58;;;;;;;28.55;22.25;;;6.80;94.20;;;;;;4978320;28;20282;-80
2021/05/01 04:40:25;;;;;;;29.73;23.05;;;6.80;94.30;;;;;;4984142;28;20206;-80
2021/05/01 04:42:52;;;;;;;27.48;21.50;;;6.80;94.20;;;;;;4983967;28;20195;-81
2021/05/01 04:45:20;;;;;;;27.45;20.85;;;6.70;94.10;;;;;;4984686;28;20257;-80
2021/05/01 04:47:47;;;;;;;30.70;21.92;;;6.70;94.00;;;;;;4979885;28;20200;-80
2021/05/01 04:50:15;;;;;;;26.02;22.45;;;6.70;93.90;;;;;;4983878;28;20207;-81
2021/05/01 04:52:41;;;;;;;27.90;23.02;;;6.60;93.90;;;;;;4980271;28;20203;-81
2021/05/01 04:55:13;;;;;;;25.80;21.48;;;6.60;93.90;;;;;;4985945;28;20200;-80
2021/05/01 04:57:41;;;;;;;30.23;22.50;;;6.60;93.90;;;;;;4983895;28;20574;-80
2021/05/01 05:00:09;;;;;;;28.55;22.23;;;6.60;94.00;;;;;;4979921;28;20191;-80
2021/05/01 05:02:35;;;;;;;26.25;21.48;;;6.60;94.10;;;;;;4987929;28;20692;-80
2021/05/01 05:05:04;;;;;;;26.67;20.92;;;6.60;94.10;;;;;;4984387;28;20561;-82
2021/05/01 05:07:30;;;;;;;22.80;19.75;;;6.60;94.10;;;;;;4983033;28;20333;-80
2021/05/01 05:09:57;;;;;;;23.70;19.17;;;6.60;94.10;;;;;;4984937;28;20226;-80
2021/05/01 05:12:24;;;;;;;22.05;19.85;;;6.60;94.10;;;;;;4985121;28;20218;-80
2021/05/01 05:14:50;;;;;;;23.40;20.60;;;6.70;94.30;;;;;;4980168;28;20191;-80
2021/05/01 05:17:17;;;;;;;26.02;22.42;;;6.70;94.70;;;;;;4982716;28;20291;-81
2021/05/01 05:19:44;;;;;;;33.53;24.00;;;6.70;95.00;;;;;;4983569;28;20949;-80
2021/05/01 05:22:11;;;;;;;28.45;23.98;;;6.70;94.70;;;;;;4986195;28;20199;-81
2021/05/01 05:24:38;;;;;;;33.00;24.38;;;6.80;94.90;;;;;;4978440;28;20675;-81
2021/05/01 05:27:05;;;;;;;29.48;24.00;;;6.80;95.00;;;;;;4982981;28;20223;-81
2021/05/01 05:29:32;;;;;;;27.75;23.48;;;6.90;95.10;;;;;;4978957;28;20282;-80
2021/05/01 05:31:59;;;;;;;36.42;25.65;;;7.00;95.40;;;;;;4983688;28;20211;-81
2021/05/01 05:34:25;;;;;;;37.78;28.98;;;7.10;95.60;;;;;;4981257;28;20651;-80
2021/05/01 05:36:52;;;;;;;43.05;29.45;;;7.10;95.70;;;;;;4984761;28;20662;-80
2021/05/01 05:39:19;;;;;;;35.17;30.02;;;7.20;95.80;;;;;;4978408;28;20404;-81
2021/05/01 05:41:46;;;;;;;40.45;29.60;;;7.30;96.10;;;;;;4987651;28;20712;-81
2021/05/01 05:44:12;;;;;;;45.40;30.60;;;7.40;96.40;;;;;;4985127;28;20203;-82
2021/05/01 05:46:39;;;;;;;38.17;30.20;;;7.50;96.50;;;;;;4981107;28;20366;-80
2021/05/01 05:49:06;;;;;;;39.65;30.88;;;7.60;96.50;;;;;;4986093;28;20655;-80
2021/05/01 05:51:33;;;;;;;41.25;31.02;;;7.70;96.60;;;;;;4983977;28;20207;-80
2021/05/01 05:53:59;;;;;;;48.75;34.17;;;7.70;96.60;;;;;;4982204;28;20536;-80
2021/05/01 05:56:26;;;;;;;42.40;32.75;;;7.80;96.90;;;;;;4985307;28;20228;-80
2021/05/01 05:58:53;;;;;;;41.40;31.85;;;7.90;97.00;;;;;;4985112;28;20881;-81
2021/05/01 06:01:20;;;;;;;50.55;34.80;;;8.00;97.20;;;;;;4980566;28;20677;-81
2021/05/01 06:03:49;;;;;;;44.35;33.35;;;8.00;97.20;;;;;;4984513;28;20560;-81
2021/05/01 06:06:23;;;;;;;48.95;34.58;;;8.10;97.30;;;;;;4974703;28;20354;-81
2021/05/01 06:08:49;;;;;;;48.15;34.95;;;8.20;97.40;;;;;;4984879;28;20223;-81
2021/05/01 06:11:18;;;;;;;51.20;34.28;;;8.30;97.50;;;;;;4985269;28;20195;-81
2021/05/01 06:13:46;;;;;;;53.35;39.33;;;8.30;97.80;;;;;;4980094;28;20636;-80
2021/05/01 06:16:13;;;;;;;49.08;35.83;;;8.40;97.80;;;;;;4983078;28;20211;-81
2021/05/01 06:18:43;;;;;;;54.05;35.70;;;8.50;97.90;;;;;;4982816;28;20205;-81
2021/05/01 06:21:10;;;;;;;52.92;37.00;;;8.60;98.00;;;;;;4978256;28;20294;-82
2021/05/01 06:23:38;;;;;;;50.85;35.00;;;8.60;98.30;;;;;;4984704;28;20207;-80
2021/05/01 06:26:05;;;;;;;51.05;36.10;;;8.70;98.30;;;;;;4976811;28;20246;-80
2021/05/01 06:28:32;;;;;;;50.42;36.33;;;8.80;98.30;;;;;;4983784;28;20206;-82
2021/05/01 06:31:01;;;;;;;41.45;34.50;;;8.80;98.40;;;;;;4985205;28;20199;-81
2021/05/01 06:33:28;;;;;;;50.65;37.35;;;8.90;98.40;;;;;;4982663;28;20671;-82
2021/05/01 06:35:55;;;;;;;47.63;34.60;;;9.00;98.40;;;;;;4983292;28;20214;-82
2021/05/01 06:38:22;;;;;;;47.22;36.33;;;9.10;98.60;;;;;;4985030;28;20199;-81
2021/05/01 06:40:52;;;;;;;47.13;34.00;;;9.10;98.70;;;;;;4989490;28;20651;-81
2021/05/01 06:43:31;;;;;;;44.55;34.22;;;9.20;98.70;;;;;;4977139;28;20308;-81
2021/05/01 06:46:01;;;;;;;45.88;32.17;;;9.20;98.60;;;;;;4982669;28;20313;-81
2021/05/01 06:48:29;;;;;;;40.67;31.80;;;9.30;98.60;;;;;;4980213;28;20207;-82
2021/05/01 06:51:00;;;;;;;42.83;32.55;;;9.30;98.60;;;;;;4973892;28;20699;-80
2021/05/01 06:53:29;;;;;;;45.08;31.98;;;9.30;98.60;;;;;;4982543;28;20249;-80
2021/05/01 06:56:00;;;;;;;49.92;33.15;;;9.40;98.70;;;;;;4981989;28;20740;-81
2021/05/01 06:58:29;;;;;;;43.55;31.58;;;9.50;98.70;;;;;;4982714;28;20695;-81
2021/05/01 07:00:56;;;;;;;45.17;35.13;;;9.60;98.70;;;;;;4982769;28;20580;-82
2021/05/01 07:03:25;;;;;;;43.33;31.98;;;9.70;98.70;;;;;;4976542;28;20195;-82
2021/05/01 07:05:52;;;;;;;42.10;32.33;;;9.70;98.60;;;;;;4981919;28;20221;-80
2021/05/01 07:08:19;;;;;;;38.63;31.65;;;9.80;98.60;;;;;;4981964;28;20219;-82
2021/05/01 07:10:45;;;;;;;42.35;31.48;;;9.90;98.50;;;;;;4982315;28;20211;-82
2021/05/01 07:13:14;;;;;;;39.72;30.95;;;10.00;98.40;;;;;;4984045;28;20193;-81
2021/05/01 07:15:41;;;;;;;44.97;31.52;;;10.00;98.20;;;;;;4979889;28;20203;-82
2021/05/01 07:18:10;;;;;;;43.58;30.42;;;10.10;98.10;;;;;;4980101;28;20204;-81
2021/05/01 07:20:38;;;;;;;41.95;32.15;;;10.20;98.00;;;;;;4987421;28;20668;-82
2021/05/01 07:23:05;;;;;;;41.10;31.15;;;10.20;97.90;;;;;;4986867;28;20687;-82
2021/05/01 07:25:31;;;;;;;43.40;32.40;;;10.30;97.90;;;;;;4985448;28;20793;-81
2021/05/01 07:28:02;;;;;;;43.90;31.98;;;10.40;97.90;;;;;;4986348;28;20208;-83
2021/05/01 07:30:31;;;;;;;37.13;30.23;;;10.40;97.80;;;;;;4987346;28;20201;-83
2021/05/01 07:33:03;;;;;;;37.75;31.27;;;10.50;97.80;;;;;;4983302;28;20817;-83
2021/05/01 07:35:31;;;;;;;38.40;29.33;;;10.60;97.80;;;;;;4982725;28;20669;-81
2021/05/01 07:38:07;;;;;;;43.40;30.73;;;10.60;97.70;;;;;;4989113;28;20205;-80
2021/05/01 07:40:34;;;;;;;31.70;26.52;;;10.70;97.70;;;;;;4984057;28;20687;-81
2021/05/01 07:43:02;;;;;;;33.42;27.77;;;10.70;97.60;;;;;;4981521;28;20198;-81
2021/05/01 07:45:29;;;;;;;38.08;29.17;;;10.80;97.50;;;;;;4985749;28;20299;-83
2021/05/01 07:47:56;;;;;;;38.13;29.48;;;10.80;96.90;;;;;;4985613;28;20214;-81
2021/05/01 07:50:23;;;;;;;32.13;26.40;;;10.90;96.90;;;;;;4982662;28;20730;-82
2021/05/01 07:52:51;;;;;;;35.33;28.58;;;11.00;96.80;;;;;;4988587;28;20213;-83
2021/05/01 07:55:19;;;;;;;37.00;25.55;;;11.10;96.70;;;;;;4987867;28;20307;-83
2021/05/01 07:57:46;;;;;;;31.70;25.88;;;11.10;96.70;;;;;;4982639;28;20251;-82
2021/05/01 08:00:14;;;;;;;31.05;23.70;;;11.20;96.50;;;;;;4983029;28;20309;-83
2021/05/01 08:02:41;;;;;;;32.35;25.77;;;11.20;96.30;;;;;;4985818;28;20198;-84
2021/05/01 08:05:08;;;;;;;31.98;22.88;;;11.30;96.10;;;;;;4980291;28;20203;-82
2021/05/01 08:07:35;;;;;;;29.73;23.42;;;11.30;95.90;;;;;;4986236;28;20791;-85
2021/05/01 08:10:02;;;;;;;30.90;23.10;;;11.20;95.80;;;;;;4983525;28;20224;-81
2021/05/01 08:12:29;;;;;;;27.38;22.90;;;11.20;95.80;;;;;;4983757;28;20201;-85
2021/05/01 08:14:56;;;;;;;23.77;20.67;;;11.30;95.70;;;;;;4985159;28;20200;-80
2021/05/01 08:17:22;;;;;;;20.73;18.52;;;11.30;95.60;;;;;;4981061;28;20197;-80
2021/05/01 08:19:51;;;;;;;22.05;18.90;;;11.40;95.40;;;;;;4982961;28;20227;-81
2021/05/01 08:22:18;;;;;;;21.65;15.95;;;11.50;94.80;;;;;;4987151;28;20671;-81
2021/05/01 08:24:44;;;;;;;24.40;18.25;;;11.60;94.70;;;;;;4983830;28;20676;-80
2021/05/01 08:27:11;;;;;;;23.48;17.27;;;11.70;94.60;;;;;;4987709;28;20702;-80
2021/05/01 08:29:38;;;;;;;20.55;16.58;;;11.80;94.10;;;;;;4983833;28;20260;-80
2021/05/01 08:32:05;;;;;;;25.40;18.25;;;11.90;94.10;;;;;;4983811;28;20692;-80
2021/05/01 08:34:31;;;;;;;26.20;15.18;;;12.00;93.90;;;;;;4985378;28;20198;-81
2021/05/01 08:36:57;;;;;;;19.45;16.35;;;12.10;93.70;;;;;;4982730;28;20200;-81
2021/05/01 08:39:24;;;;;;;17.58;14.50;;;12.20;93.50;;;;;;4982140;28;20751;-80
2021/05/01 08:41:50;;;;;;;16.95;14.10;;;12.30;92.90;;;;;;4989854;28;20566;-81
2021/05/01 08:44:17;;;;;;;19.95;15.98;;;12.30;92.90;;;;;;4988429;28;20639;-83
2021/05/01 08:46:46;;;;;;;13.80;12.18;;;12.40;92.70;;;;;;4984519;28;20701;-82
2021/05/01 08:49:13;;;;;;;18.10;13.40;;;12.50;92.40;;;;;;4979280;28;20225;-82
2021/05/01 08:51:42;;;;;;;18.55;11.98;;;12.60;91.70;;;;;;4986602;28;20199;-82
2021/05/01 08:54:11;;;;;;;17.42;12.60;;;12.70;91.70;;;;;;4988163;28;20207;-81
2021/05/01 08:56:38;;;;;;;14.02;12.40;;;12.80;91.40;;;;;;4988873;28;20211;-82
2021/05/01 08:59:05;;;;;;;18.67;12.95;;;12.90;91.20;;;;;;4983646;28;20203;-81
2021/05/01 09:01:31;;;;;;;18.00;12.43;;;13.10;91.10;;;;;;4983440;28;20207;-81
2021/05/01 09:04:01;;;;;;;16.50;11.93;;;13.20;91.10;;;;;;4981445;28;20203;-80
2021/05/01 09:06:27;;;;;;;14.80;13.17;;;13.30;91.10;;;;;;4969897;28;20237;-80
2021/05/01 09:08:56;;;;;;;15.57;12.07;;;13.40;91.10;;;;;;4986135;28;20701;-80
2021/05/01 09:11:33;;;;;;;15.73;11.80;;;13.40;90.90;;;;;;4985711;28;20474;-81
2021/05/01 09:13:59;;;;;;;13.82;11.50;;;13.40;90.70;;;;;;4981196;28;21026;-80
2021/05/01 09:16:26;;;;;;;16.10;11.77;;;13.50;89.50;;;;;;4987886;28;20195;-80
2021/05/01 09:18:55;;;;;;;13.95;12.52;;;13.50;89.60;;;;;;4983801;28;20697;-80
2021/05/01 09:21:24;;;;;;;13.10;11.27;;;13.60;90.10;;;;;;4978037;28;20210;-81
2021/05/01 09:23:51;;;;;;;11.77;9.82;;;13.70;90.00;;;;;;4981134;28;20234;-80
2021/05/01 09:26:33;;;;;;;13.55;10.77;;;13.60;88.50;;;;;;4983976;28;20614;-81
2021/05/01 09:29:00;;;;;;;13.33;10.30;;;13.60;88.80;;;;;;4983141;28;20555;-80
2021/05/01 09:31:27;;;;;;;12.60;9.90;;;13.70;88.10;;;;;;4986655;28;20471;-80
2021/05/01 09:33:54;;;;;;;14.07;10.55;;;13.80;87.30;;;;;;4983542;28;20478;-80
2021/05/01 09:36:23;;;;;;;15.30;9.80;;;13.90;86.90;;;;;;4976666;28;20228;-80
2021/05/01 09:38:52;;;;;;;12.70;9.67;;;14.00;86.90;;;;;;4981403;28;20470;-81
2021/05/01 09:41:20;;;;;;;10.53;9.53;;;14.10;86.80;;;;;;4982119;28;20458;-80
2021/05/01 09:44:02;;;;;;;12.30;11.10;;;14.30;87.50;;;;;;4984155;28;20458;-80
2021/05/01 09:46:30;;;;;;;13.03;10.37;;;14.50;85.00;;;;;;4976689;28;20549;-80
2021/05/01 09:49:05;;;;;;;16.57;10.47;;;14.60;84.40;;;;;;4978339;28;20470;-80
2021/05/01 09:51:43;;;;;;;10.90;9.73;;;14.70;84.10;;;;;;4986928;28;20449;-79
2021/05/01 09:54:10;;;;;;;13.80;9.77;;;15.00;85.10;;;;;;4983035;28;20547;-81
2021/05/01 09:56:38;;;;;;;12.43;10.00;;;15.20;83.60;;;;;;4979989;28;20483;-80
2021/05/01 09:59:04;;;;;;;10.10;9.00;;;15.20;80.30;;;;;;4982461;28;20473;-81
2021/05/01 10:01:31;;;;;;;14.73;11.70;;;15.20;80.00;;;;;;4977124;28;20471;-80
2021/05/01 10:04:11;;;;;;;12.43;10.97;;;15.10;80.90;;;;;;4983654;28;20522;-80
2021/05/01 10:06:40;;;;;;;18.87;11.43;;;15.00;81.30;;;;;;4986006;28;20489;-80
2021/05/01 10:09:08;;;;;;;14.13;10.00;;;14.90;82.20;;;;;;4985544;28;20998;-81
2021/05/01 10:11:35;;;;;;;11.33;10.13;;;14.90;82.50;;;;;;4980182;28;20489;-80
2021/05/01 10:14:05;;;;;;;11.63;9.43;;;14.90;81.40;;;;;;4975407;28;20467;-80
2021/05/01 10:16:32;;;;;;;9.87;8.87;;;15.00;81.10;;;;;;4981750;28;20985;-80
2021/05/01 10:19:08;;;;;;;10.07;9.07;;;15.00;79.60;;;;;;4985790;28;21191;-80
2021/05/01 10:21:35;;;;;;;10.93;8.57;;;15.00;80.00;;;;;;4976446;28;20470;-81
2021/05/01 10:24:03;;;;;;;8.83;7.40;;;15.10;80.30;;;;;;4977965;28;20474;-80
2021/05/01 10:26:42;;;;;;;8.23;7.43;;;15.30;78.00;;;;;;4976503;28;20492;-80
2021/05/01 10:29:10;;;;;;;9.30;7.50;;;15.60;78.50;;;;;;4979640;28;20467;-80
2021/05/01 10:31:52;;;;;;;7.50;6.70;;;15.70;77.60;;;;;;4977080;28;20494;-81
2021/05/01 10:34:23;;;;;;;7.73;6.93;;;15.90;77.60;;;;;;4976660;28;20554;-85
2021/05/01 10:36:52;;;;;;;12.90;7.23;;;15.90;77.10;;;;;;4985275;28;20465;-80
2021/05/01 10:39:19;;;;;;;9.47;6.20;;;15.90;75.90;;;;;;4986126;28;20965;-80
2021/05/01 10:41:55;;;;;;;8.20;7.00;;;15.90;75.40;;;;;;4977922;28;20466;-80
2021/05/01 10:44:22;;;;;;;7.17;6.47;;;16.00;74.30;;;;;;4980025;28;21116;-79
2021/05/01 10:46:48;;;;;;;7.83;6.40;;;16.10;72.30;;;;;;4983869;28;20499;-80
2021/05/01 10:49:15;;;;;;;7.23;6.63;;;16.20;73.00;;;;;;4981281;28;20847;-79
2021/05/01 10:51:44;;;;;;;7.20;6.50;;;16.30;71.50;;;;;;4979955;28;20468;-80
2021/05/01 10:54:12;;;;;;;7.57;6.87;;;16.40;71.40;;;;;;4976787;28;20473;-80
2021/05/01 10:56:44;;;;;;;8.30;7.23;;;16.50;72.00;;;;;;4978550;28;20508;-80
2021/05/01 10:59:12;;;;;;;8.07;6.03;;;16.60;72.30;;;;;;4981841;28;20558;-80
2021/05/01 11:01:46;;;;;;;7.30;6.47;;;16.80;69.10;;;;;;4989070;28;20553;-80
2021/05/01 11:04:18;;;;;;;7.03;6.33;;;16.90;69.70;;;;;;4987690;28;20524;-80
2021/05/01 11:06:48;;;;;;;7.57;6.30;;;17.00;71.00;;;;;;4992370;28;20485;-80
2021/05/01 11:09:19;;;;;;;6.63;5.93;;;17.20;70.80;;;;;;4983273;28;20524;-81
2021/05/01 11:11:49;;;;;;;12.30;6.00;;;17.20;70.40;;;;;;4982498;28;20484;-80
2021/05/01 11:14:22;;;;;;;7.27;5.77;;;17.20;69.20;;;;;;4976570;28;20469;-81
2021/05/01 11:16:51;;;;;;;7.70;6.13;;;17.30;69.70;;;;;;4987285;28;20991;-80
2021/05/01 11:19:21;;;;;;;6.43;5.93;;;17.30;70.10;;;;;;4987517;28;21132;-82
2021/05/01 11:21:49;;;;;;;5.90;5.30;;;17.40;69.60;;;;;;4989693;28;21052;-81
2021/05/01 11:24:16;;;;;;;8.53;6.33;;;17.40;71.20;;;;;;4983806;28;20484;-80
2021/05/01 11:26:44;;;;;;;8.67;6.20;;;17.40;70.70;;;;;;4983099;28;20498;-80
2021/05/01 11:29:12;;;;;;;7.70;6.10;;;17.50;70.70;;;;;;4984970;28;20466;-80
2021/05/01 11:31:41;;;;;;;6.13;5.63;;;17.60;67.70;;;;;;4991741;28;20467;-81
2021/05/01 11:34:10;;;;;;;9.73;6.57;;;17.70;68.50;;;;;;4981791;28;20470;-80
2021/05/01 11:36:45;;;;;;;8.90;6.20;;;17.70;67.90;;;;;;4984950;28;20473;-80
2021/05/01 11:39:12;;;;;;;7.60;6.40;;;17.60;66.80;;;;;;4980963;28;20462;-81
2021/05/01 11:41:43;;;;;;;7.30;6.60;;;17.40;66.10;;;;;;4982681;28;20554;-80
2021/05/01 11:44:11;;;;;;;7.30;6.23;;;17.10;66.40;;;;;;4983352;28;20459;-80
2021/05/01 11:46:43;;;;;;;7.30;5.30;;;16.90;67.50;;;;;;4985065;28;20490;-80
2021/05/01 11:49:10;;;;;;;7.17;5.80;;;16.70;66.50;;;;;;4985462;28;20471;-80
2021/05/01 11:51:58;;;;;;;8.30;6.57;;;16.50;67.90;;;;;;4985541;28;20465;-80
2021/05/01 11:54:36;;;;;;;5.63;5.07;;;16.30;67.80;;;;;;4980852;28;20499;-80
2021/05/01 11:57:12;;;;;;;5.70;5.20;;;16.10;68.40;;;;;;4980152;28;21039;-80
2021/05/01 11:59:45;;;;;;;6.80;5.00;;;16.00;68.60;;;;;;4983305;28;20477;-80
2021/05/01 12:02:13;;;;;;;6.33;5.73;;;16.10;67.90;;;;;;4985338;28;20547;-80
2021/05/01 12:04:49;;;;;;;5.90;5.23;;;16.00;66.90;;;;;;4986089;28;20470;-79
2021/05/01 12:07:24;;;;;;;6.87;5.80;;;16.00;68.20;;;;;;4986281;28;20507;-80
2021/05/01 12:09:53;;;;;;;5.57;4.90;;;16.00;67.80;;;;;;4979711;28;20711;-80
2021/05/01 12:12:21;;;;;;;5.60;4.93;;;16.10;63.40;;;;;;4981372;28;20476;-80
2021/05/01 12:14:49;;;;;;;6.00;5.50;;;16.00;64.20;;;;;;4982965;28;20553;-81
2021/05/01 12:17:16;;;;;;;5.10;4.60;;;16.00;63.10;;;;;;4977089;28;21418;-80
2021/05/01 12:19:44;;;;;;;8.20;5.87;;;16.00;63.80;;;;;;4982971;28;20831;-81
2021/05/01 12:22:28;;;;;;;6.13;5.63;;;16.00;65.70;;;;;;4988706;28;20465;-80
2021/05/01 12:24:55;;;;;;;6.60;4.77;;;16.00;65.80;;;;;;4986437;28;21007;-81
2021/05/01 12:27:53;;;;;;;5.90;5.40;;;15.90;66.20;;;;;;4980183;28;20494;-81
2021/05/01 12:31:01;;;;;;;6.13;5.03;;;15.90;66.00;;;;;;4986037;28;20533;-80
2021/05/01 12:33:53;;;;;;;5.63;5.13;;;15.80;64.70;;;;;;4979288;28;20832;-80
2021/05/01 12:36:26;;;;;;;7.53;5.67;;;15.60;65.40;;;;;;4982768;28;20510;-80
2021/05/01 12:38:54;;;;;;;5.13;4.70;;;15.60;66.20;;;;;;4982515;28;20495;-80
2021/05/01 12:41:29;;;;;;;11.27;5.20;;;15.50;66.20;;;;;;4981404;28;20469;-80